PAFA/FAI METAR and TAF weather

Enter ICAO airport designator
Station Type Date Time Source
PAFA METAR 2019/02/17 06:53 UTC NOAA

PAFA 170653Z 00000KT 10SM FEW022 OVC200 M13/M16 A3028 RMK AO2 SLP270 T11281161 PNO


Station Type Date Time Source
PAFA Decoded METAR 2019/02/17 06:53 UTC NOAA

Fairbanks, Fairbanks International Airport, AK, United States (PAFA) 64-48-14N 147-52-34W 140M
Feb 17, 2019 - 01:53 AM EST / 2019.02.17 0653 UTC
Wind: Calm:0
Visibility: 10 mile(s):0
Sky conditions: overcast
Temperature: 9.0 F (-12.8 C)
Dew Point: 3.0 F (-16.1 C)
Relative Humidity: 76%
Pressure (altimeter): 30.28 in. Hg (1025 hPa)
ob: PAFA 170653Z 00000KT 10SM FEW022 OVC200 M13/M16 A3028 RMK AO2 SLP270 T11281161 PNO
cycle: 7

Station Type Date Time Source
PAFA TAF 2019/02/17 06:45 UTC NOAA

TAF TAF PAFA 170538Z 1706/1812 00000KT P6SM OVC025
FM170800 VRB04KT P6SM BKN050 OVC100
FM171500 04008KT P6SM OVC100
FM172200 04002KT 5SM -SN BR BKN025 OVC050
FM180300 01004KT 1 1/2SM -SN BR OVC015


Example: see airport list